Time;durP1;ratioP1;P1;durP2;ratioP2;P2;SDS_P1;SDS_P2;PMS_P1;PMS_P2;Temp;Humidity;BMP_temperature;BMP_pressure;BME280_temperature;BME280_humidity;BME280_pressure;Samples;Min_cycle;Max_cycle;Signal;HPM_P1;HPM_P2
2022/11/15 00:01:41;;;;;;;162.07;17.17;;;0.40;99.90;;;;;;4167113;28;20681;-71
2022/11/15 00:03:42;;;;;;;178.20;16.80;;;0.50;99.90;;;;;;4180842;28;20269;-68
2022/11/15 00:05:44;;;;;;;138.57;14.17;;;0.40;99.90;;;;;;4182159;28;20323;-66
2022/11/15 00:07:45;;;;;;;449.23;37.27;;;0.40;99.90;;;;;;4182536;28;20272;-67
2022/11/15 00:09:46;;;;;;;233.17;18.90;;;0.30;99.90;;;;;;4182978;28;20262;-71
2022/11/15 00:11:47;;;;;;;131.20;18.03;;;0.30;99.90;;;;;;4168183;28;20328;-69
2022/11/15 00:13:48;;;;;;;179.27;18.23;;;0.30;99.90;;;;;;4165918;28;20266;-66
2022/11/15 00:15:49;;;;;;;215.37;16.73;;;0.30;99.90;;;;;;4166703;28;20348;-68
2022/11/15 00:17:50;;;;;;;184.63;18.33;;;0.20;99.90;;;;;;4165800;28;20673;-66
2022/11/15 00:19:52;;;;;;;228.87;16.37;;;0.20;99.90;;;;;;4167279;28;20294;-66
2022/11/15 00:21:53;;;;;;;287.93;22.37;;;0.20;99.90;;;;;;4164912;28;20364;-66
2022/11/15 00:23:54;;;;;;;251.60;20.27;;;0.20;99.90;;;;;;4166949;28;20298;-65
2022/11/15 00:25:59;;;;;;;202.50;17.50;;;0.10;99.90;;;;;;4167725;28;20669;-69
2022/11/15 00:28:01;;;;;;;148.23;14.60;;;0.00;99.90;;;;;;4183369;28;20874;-66
2022/11/15 00:30:02;;;;;;;197.33;17.33;;;0.00;99.90;;;;;;4182242;28;20274;-65
2022/11/15 00:32:03;;;;;;;280.80;22.13;;;0.00;99.90;;;;;;4183375;28;20265;-66
2022/11/15 00:34:04;;;;;;;172.23;14.77;;;0.00;99.90;;;;;;4182242;28;20259;-66
2022/11/15 00:36:11;;;;;;;115.87;14.47;;;0.00;99.90;;;;;;4183231;28;20367;-66
2022/11/15 00:38:12;;;;;;;229.80;19.40;;;0.00;99.90;;;;;;4166865;28;20293;-66
2022/11/15 00:40:14;;;;;;;126.10;14.47;;;0.00;99.90;;;;;;4166303;28;20275;-66
2022/11/15 00:42:15;;;;;;;176.60;17.30;;;0.00;99.90;;;;;;4165678;28;20328;-65
2022/11/15 00:44:16;;;;;;;137.07;16.00;;;-0.10;99.90;;;;;;4165972;28;20726;-66
2022/11/15 00:46:17;;;;;;;153.50;14.70;;;-0.10;99.90;;;;;;4179837;28;20270;-66
2022/11/15 00:48:18;;;;;;;150.77;14.90;;;-0.10;99.90;;;;;;4182422;28;20339;-66
2022/11/15 00:50:19;;;;;;;130.07;14.60;;;-0.10;99.90;;;;;;4175715;28;20826;-66
2022/11/15 00:52:20;;;;;;;82.30;11.10;;;-0.10;99.90;;;;;;4166824;28;20278;-66
2022/11/15 00:54:21;;;;;;;83.17;13.73;;;-0.10;99.90;;;;;;4169325;28;20275;-66
2022/11/15 00:56:23;;;;;;;124.73;16.77;;;-0.10;99.90;;;;;;4165344;28;20373;-66
2022/11/15 00:58:24;;;;;;;66.27;13.10;;;-0.10;99.90;;;;;;4166742;28;20674;-66
2022/11/15 01:00:25;;;;;;;108.13;13.57;;;-0.10;99.90;;;;;;4165055;28;20275;-68
2022/11/15 01:02:27;;;;;;;94.13;16.00;;;-0.10;99.90;;;;;;4166565;28;20287;-71
2022/11/15 01:04:29;;;;;;;84.63;13.20;;;-0.20;99.90;;;;;;4147941;28;20322;-66
2022/11/15 01:06:30;;;;;;;31.70;11.80;;;-0.20;99.90;;;;;;4163628;28;20396;-66
2022/11/15 01:08:31;;;;;;;27.57;10.83;;;-0.20;99.90;;;;;;4162886;28;20309;-67
2022/11/15 01:10:33;;;;;;;36.07;10.83;;;-0.10;99.90;;;;;;4163328;28;20341;-73
2022/11/15 01:12:34;;;;;;;53.57;11.20;;;0.00;99.90;;;;;;4162169;28;20275;-66
2022/11/15 01:14:35;;;;;;;46.07;11.10;;;0.00;99.90;;;;;;4163874;28;20286;-68
2022/11/15 01:16:36;;;;;;;49.97;12.13;;;0.10;99.90;;;;;;4162549;28;20259;-66
2022/11/15 01:18:38;;;;;;;40.20;12.57;;;0.10;99.90;;;;;;4173768;28;20327;-67
2022/11/15 01:20:41;;;;;;;50.57;10.77;;;0.20;99.90;;;;;;4180296;28;20266;-72
2022/11/15 01:22:42;;;;;;;73.10;13.37;;;0.10;99.90;;;;;;4160469;28;20357;-72
2022/11/15 01:24:43;;;;;;;42.73;11.30;;;0.10;99.90;;;;;;4179773;28;20274;-65
2022/11/15 01:26:45;;;;;;;40.73;10.17;;;0.00;99.90;;;;;;4177536;28;20635;-66
2022/11/15 01:28:46;;;;;;;34.37;9.80;;;0.00;99.90;;;;;;4179361;28;20431;-66
2022/11/15 01:30:47;;;;;;;51.43;12.07;;;0.00;99.90;;;;;;4161218;28;20345;-65
2022/11/15 01:32:48;;;;;;;68.40;12.47;;;0.10;99.90;;;;;;4180141;28;20603;-65
2022/11/15 01:34:51;;;;;;;144.23;15.90;;;0.10;99.90;;;;;;4178744;28;20277;-66
2022/11/15 01:36:52;;;;;;;154.90;15.43;;;0.00;99.90;;;;;;4169641;28;20270;-66
2022/11/15 01:38:55;;;;;;;112.17;14.53;;;-0.10;99.90;;;;;;4162471;28;20263;-67
2022/11/15 01:40:56;;;;;;;95.03;13.37;;;-0.10;99.90;;;;;;4162725;28;20340;-66
2022/11/15 01:42:57;;;;;;;147.83;14.90;;;-0.20;99.90;;;;;;4183917;28;20304;-65
2022/11/15 01:44:58;;;;;;;102.63;12.97;;;-0.20;99.90;;;;;;4196129;28;20261;-65
2022/11/15 01:47:03;;;;;;;101.37;13.03;;;-0.20;99.90;;;;;;4195703;28;20563;-65
2022/11/15 01:49:12;;;;;;;99.73;12.97;;;-0.20;99.90;;;;;;4196182;28;20250;-65
2022/11/15 01:51:17;;;;;;;131.77;15.40;;;-0.20;99.90;;;;;;4195617;28;20609;-65
2022/11/15 01:53:21;;;;;;;119.70;14.83;;;-0.20;99.90;;;;;;4170381;28;20333;-68
2022/11/15 01:55:25;;;;;;;230.20;19.23;;;-0.20;99.90;;;;;;4147599;28;20342;-65
2022/11/15 01:57:27;;;;;;;279.07;25.30;;;-0.20;99.90;;;;;;4162484;28;20297;-66
2022/11/15 01:59:28;;;;;;;151.90;16.93;;;-0.20;99.90;;;;;;4163163;28;20262;-66
2022/11/15 02:01:32;;;;;;;156.97;17.93;;;-0.30;99.90;;;;;;4163202;28;20271;-66
2022/11/15 02:03:58;;;;;;;372.50;26.33;;;-0.30;99.90;;;;;;4163280;28;20972;-69
2022/11/15 02:06:00;;;;;;;287.23;26.67;;;-0.30;99.90;;;;;;4150986;28;20279;-66
2022/11/15 02:08:01;;;;;;;267.10;19.67;;;-0.30;99.90;;;;;;4163120;28;20361;-67
2022/11/15 02:10:12;;;;;;;119.77;14.73;;;-0.30;99.90;;;;;;4143988;28;20287;-65
2022/11/15 02:12:18;;;;;;;283.38;24.15;;;-0.30;99.90;;;;;;4146275;28;20359;-71
2022/11/15 02:14:20;;;;;;;280.97;25.50;;;-0.20;99.90;;;;;;4155978;28;20037;-70
2022/11/15 02:17:00;;;;;;;306.07;24.27;;;-0.20;99.90;;;;;;4162241;28;20297;-70
2022/11/15 02:19:16;;;;;;;215.93;18.87;;;-0.20;99.90;;;;;;4161345;28;20321;-65
2022/11/15 02:21:21;;;;;;;256.60;21.03;;;-0.30;99.90;;;;;;4162570;28;20313;-67
2022/11/15 02:23:38;;;;;;;126.87;14.93;;;-0.30;99.90;;;;;;4160611;28;20286;-63
2022/11/15 02:25:44;;;;;;;249.93;21.60;;;-0.20;99.90;;;;;;4145427;28;20617;-67
2022/11/15 02:28:10;;;;;;;153.40;16.07;;;-0.30;99.90;;;;;;4150697;28;20275;-72
2022/11/15 02:30:25;;;;;;;136.00;15.30;;;-0.30;99.90;;;;;;4162149;28;20826;-65
2022/11/15 02:32:35;;;;;;;97.30;11.87;;;-0.30;99.90;;;;;;4160476;28;20275;-65
2022/11/15 02:35:06;;;;;;;71.90;10.47;;;-0.30;99.90;;;;;;4161839;28;20325;-65
2022/11/15 02:37:25;;;;;;;123.57;12.60;;;-0.40;99.90;;;;;;4161870;28;20408;-66
2022/11/15 02:39:34;;;;;;;73.00;13.77;;;-0.40;99.90;;;;;;4160991;28;20275;-65
2022/11/15 02:41:37;;;;;;;81.27;12.43;;;-0.40;99.90;;;;;;4162611;28;20267;-70
2022/11/15 02:43:56;;;;;;;81.83;11.83;;;-0.40;99.90;;;;;;4161177;28;20346;-65
2022/11/15 02:47:12;;;;;;;76.77;12.33;;;-0.40;99.90;;;;;;4162557;28;20401;-65
2022/11/15 02:48:45;;;;;;;104.70;13.77;;;-0.40;99.90;;;;;;4161573;28;20282;-65
2022/11/15 02:50:47;;;;;;;133.47;14.53;;;-0.40;99.90;;;;;;4162569;28;20275;-69
2022/11/15 02:52:49;;;;;;;158.47;15.07;;;-0.50;99.90;;;;;;4161172;28;20727;-67
2022/11/15 02:54:55;;;;;;;244.60;17.80;;;-0.60;99.90;;;;;;4159022;28;20286;-65
2022/11/15 02:57:02;;;;;;;125.57;12.47;;;-0.60;99.90;;;;;;4147583;28;20445;-66
2022/11/15 02:59:11;;;;;;;191.73;17.73;;;-0.60;99.90;;;;;;4146041;28;20295;-66
2022/11/15 03:01:43;;;;;;;257.60;21.67;;;-0.60;99.90;;;;;;4153163;28;20334;-65
2022/11/15 03:04:03;;;;;;;295.50;24.07;;;-0.70;99.90;;;;;;4161518;28;20298;-66
2022/11/15 03:06:20;;;;;;;125.50;13.37;;;-0.70;99.90;;;;;;4143393;28;20330;-66
2022/11/15 03:08:59;;;;;;;123.33;14.53;;;-0.60;99.90;;;;;;4158088;28;20275;-68
2022/11/15 03:11:11;;;;;;;105.90;13.90;;;-0.60;99.90;;;;;;4172050;28;20712;-65
2022/11/15 03:13:34;;;;;;;137.33;15.50;;;-0.50;99.90;;;;;;4178107;28;20278;-65
2022/11/15 03:15:53;;;;;;;104.53;12.73;;;-0.60;99.90;;;;;;4161538;28;20266;-68
2022/11/15 03:18:19;;;;;;;159.67;13.13;;;-0.60;99.90;;;;;;4176230;28;20304;-65
2022/11/15 03:20:20;;;;;;;168.67;14.83;;;-0.60;99.90;;;;;;4178876;28;20262;-66
2022/11/15 03:22:26;;;;;;;106.73;10.90;;;-0.50;99.90;;;;;;4176946;28;20308;-64
2022/11/15 03:24:30;;;;;;;61.83;10.30;;;-0.50;99.90;;;;;;4176660;28;20332;-66
2022/11/15 03:26:33;;;;;;;118.40;14.33;;;-0.50;99.90;;;;;;4161171;28;20646;-65
2022/11/15 03:28:40;;;;;;;119.43;13.13;;;-0.40;99.90;;;;;;4160773;28;20266;-64
2022/11/15 03:30:45;;;;;;;108.87;13.03;;;-0.40;99.90;;;;;;4160805;28;20267;-66
2022/11/15 03:32:57;;;;;;;196.60;19.00;;;-0.50;99.90;;;;;;4161496;28;20274;-64
2022/11/15 03:35:07;;;;;;;161.23;16.43;;;-0.50;99.90;;;;;;4165632;28;20265;-65
2022/11/15 03:37:13;;;;;;;123.75;15.73;;;-0.50;99.90;;;;;;4177799;28;20317;-66
2022/11/15 03:39:14;;;;;;;141.23;17.00;;;-0.50;99.90;;;;;;4177833;28;20423;-66
2022/11/15 03:41:22;;;;;;;109.97;15.23;;;-0.60;99.90;;;;;;4176736;28;20324;-66
2022/11/15 03:43:26;;;;;;;155.70;15.17;;;-0.60;99.90;;;;;;4177689;28;20290;-65
2022/11/15 03:45:46;;;;;;;111.80;13.53;;;-0.60;99.90;;;;;;4177000;28;20328;-65
2022/11/15 03:48:02;;;;;;;69.73;12.10;;;-0.60;99.90;;;;;;4159816;28;20259;-66
2022/11/15 03:50:10;;;;;;;138.27;15.90;;;-0.60;99.90;;;;;;4175992;28;20270;-66
2022/11/15 03:52:11;;;;;;;275.93;20.70;;;-0.60;99.90;;;;;;4167474;28;20279;-66
2022/11/15 03:54:13;;;;;;;130.00;14.83;;;-0.50;99.90;;;;;;4164816;28;20351;-67
2022/11/15 03:56:14;;;;;;;93.90;13.53;;;-0.50;99.90;;;;;;4175330;28;20286;-66
2022/11/15 03:58:15;;;;;;;142.77;16.63;;;-0.40;99.90;;;;;;4173468;28;20697;-69
2022/11/15 04:00:16;;;;;;;125.27;16.70;;;-0.40;99.90;;;;;;4178093;28;20927;-66
2022/11/15 04:02:17;;;;;;;107.77;13.20;;;-0.30;99.90;;;;;;4172207;28;20313;-65
2022/11/15 04:04:19;;;;;;;182.10;20.10;;;-0.30;99.90;;;;;;4161492;28;20747;-65
2022/11/15 04:06:20;;;;;;;242.30;21.60;;;-0.40;99.90;;;;;;4159862;28;20324;-65
2022/11/15 04:08:21;;;;;;;57.40;15.97;;;-0.50;99.90;;;;;;4161585;28;20270;-67
2022/11/15 04:10:22;;;;;;;289.33;19.37;;;-0.50;99.90;;;;;;4161310;28;20372;-69
2022/11/15 04:12:32;;;;;;;53.87;11.37;;;-0.50;99.90;;;;;;4143584;28;20350;-65
2022/11/15 04:14:33;;;;;;;137.82;15.77;;;-0.40;99.90;;;;;;4159740;28;20735;-65
2022/11/15 04:16:35;;;;;;;285.60;22.43;;;-0.40;99.90;;;;;;4160983;28;20087;-69
2022/11/15 04:18:36;;;;;;;230.47;19.03;;;-0.50;99.90;;;;;;4160649;28;20267;-66
2022/11/15 04:25:30;;;;;;;167.43;16.97;;;-0.60;99.90;;;;;;4167230;28;20344;-70
2022/11/15 04:27:31;;;;;;;192.93;18.80;;;-0.60;99.90;;;;;;4159590;28;20283;-65
2022/11/15 04:29:35;;;;;;;185.87;16.77;;;-0.60;99.90;;;;;;4161483;28;20275;-68
2022/11/15 04:31:36;;;;;;;89.30;14.43;;;-0.60;99.90;;;;;;4160305;28;20262;-66
2022/11/15 04:33:37;;;;;;;36.33;10.30;;;-0.60;99.90;;;;;;4161084;28;20259;-67
2022/11/15 04:35:39;;;;;;;247.47;19.93;;;-0.60;99.90;;;;;;4160611;28;20247;-65
2022/11/15 04:37:40;;;;;;;154.20;14.83;;;-0.60;99.90;;;;;;4160661;28;20251;-66
2022/11/15 04:39:42;;;;;;;124.23;13.83;;;-0.60;99.90;;;;;;4160868;28;20333;-67
2022/11/15 04:41:43;;;;;;;116.97;14.07;;;-0.70;99.90;;;;;;4168548;28;20680;-67
2022/11/15 04:43:44;;;;;;;161.50;15.87;;;-0.70;99.90;;;;;;4173561;28;20294;-69
2022/11/15 04:45:46;;;;;;;125.07;12.77;;;-0.80;99.90;;;;;;4172710;28;20278;-68
2022/11/15 04:47:47;;;;;;;155.33;16.13;;;-0.70;99.90;;;;;;4171017;28;20726;-69
2022/11/15 04:49:48;;;;;;;52.30;10.83;;;-0.80;99.90;;;;;;4179878;28;20324;-71
2022/11/15 04:51:49;;;;;;;274.47;20.80;;;-0.70;99.90;;;;;;4180732;28;20269;-65
2022/11/15 04:53:50;;;;;;;169.07;16.17;;;-0.70;99.90;;;;;;4174695;28;20662;-67
2022/11/15 04:55:51;;;;;;;130.57;13.70;;;-0.60;99.90;;;;;;4168320;28;20336;-70
2022/11/15 04:58:00;;;;;;;38.27;10.07;;;-0.70;99.90;;;;;;4166801;28;20270;-66
2022/11/15 05:00:06;;;;;;;111.47;13.87;;;-0.70;99.90;;;;;;4179196;28;20282;-67
2022/11/15 05:02:07;;;;;;;100.73;14.37;;;-0.60;99.90;;;;;;4179452;28;20262;-65
2022/11/15 05:04:20;;;;;;;55.23;12.53;;;-0.70;99.90;;;;;;4176902;28;20294;-66
2022/11/15 05:06:21;;;;;;;213.23;21.20;;;-0.70;99.90;;;;;;4174570;28;20304;-65
2022/11/15 05:08:22;;;;;;;74.77;11.07;;;-0.70;99.90;;;;;;4178221;28;20270;-67
2022/11/15 05:10:23;;;;;;;120.93;15.47;;;-0.80;99.90;;;;;;4179261;28;20323;-64
2022/11/15 05:12:24;;;;;;;119.90;14.87;;;-0.80;99.90;;;;;;4179826;28;20335;-69
2022/11/15 05:14:25;;;;;;;204.43;21.93;;;-0.80;99.90;;;;;;4177277;28;20352;-66
2022/11/15 05:16:27;;;;;;;180.80;18.67;;;-0.80;99.90;;;;;;4177034;28;20690;-65
2022/11/15 05:18:28;;;;;;;146.00;13.63;;;-0.80;99.90;;;;;;4177086;28;20312;-65
2022/11/15 05:20:29;;;;;;;68.67;14.83;;;-0.80;99.90;;;;;;4175102;28;20340;-65
2022/11/15 05:22:30;;;;;;;124.20;16.37;;;-0.80;99.90;;;;;;4164192;28;20658;-64
2022/11/15 05:24:31;;;;;;;80.17;12.33;;;-0.70;99.90;;;;;;4162016;28;20286;-66
2022/11/15 05:26:32;;;;;;;96.73;11.53;;;-0.70;99.90;;;;;;4163313;28;20287;-68
2022/11/15 05:28:34;;;;;;;38.30;11.97;;;-0.70;99.90;;;;;;4162034;28;20267;-65
2022/11/15 05:30:35;;;;;;;112.30;14.00;;;-0.80;99.90;;;;;;4167053;28;20349;-65
2022/11/15 05:32:36;;;;;;;191.23;18.43;;;-0.80;99.90;;;;;;4161339;28;20278;-66
2022/11/15 05:34:37;;;;;;;74.07;17.30;;;-0.80;99.90;;;;;;4177668;28;20332;-67
2022/11/15 05:36:42;;;;;;;59.37;13.67;;;-0.80;99.90;;;;;;4156832;28;20332;-66
2022/11/15 05:38:45;;;;;;;209.37;21.73;;;-0.70;99.90;;;;;;4179475;28;20270;-66
2022/11/15 05:40:46;;;;;;;210.60;20.70;;;-0.70;99.90;;;;;;4176368;28;20278;-66
2022/11/15 05:42:48;;;;;;;90.60;17.57;;;-0.70;99.90;;;;;;4178215;28;20328;-66
2022/11/15 05:44:49;;;;;;;83.30;16.07;;;-0.70;99.90;;;;;;4177854;28;20294;-65
2022/11/15 05:46:53;;;;;;;82.33;15.07;;;-0.70;99.90;;;;;;4177690;28;20804;-65
2022/11/15 05:48:56;;;;;;;129.20;17.33;;;-0.70;99.90;;;;;;4178889;28;20694;-64
2022/11/15 05:50:58;;;;;;;36.43;13.40;;;-0.70;99.90;;;;;;4177096;28;20356;-64
2022/11/15 05:53:00;;;;;;;32.60;11.87;;;-0.60;99.90;;;;;;4177920;28;20266;-65
2022/11/15 05:55:04;;;;;;;46.93;12.10;;;-0.60;99.90;;;;;;4177562;28;20316;-66
2022/11/15 05:57:05;;;;;;;104.43;17.27;;;-0.60;99.90;;;;;;4173257;28;20786;-68
2022/11/15 05:59:08;;;;;;;86.07;13.97;;;-0.70;99.90;;;;;;4162767;28;20332;-71
2022/11/15 06:01:09;;;;;;;56.10;11.93;;;-0.80;99.90;;;;;;4172297;28;20268;-67
2022/11/15 06:03:10;;;;;;;67.37;12.83;;;-0.80;99.90;;;;;;4177089;28;20315;-63
2022/11/15 06:05:11;;;;;;;80.47;13.17;;;-0.90;99.90;;;;;;4186862;28;20269;-69
2022/11/15 06:07:12;;;;;;;133.50;17.70;;;-0.90;99.90;;;;;;4170344;28;20345;-66
2022/11/15 06:09:14;;;;;;;43.80;13.13;;;-0.90;99.90;;;;;;4179125;28;20669;-68
2022/11/15 06:11:15;;;;;;;129.33;19.97;;;-0.90;99.90;;;;;;4177419;28;20286;-70
2022/11/15 06:13:16;;;;;;;106.33;18.17;;;-0.90;99.90;;;;;;4178238;28;20336;-65
2022/11/15 06:15:17;;;;;;;59.40;15.07;;;-0.90;99.90;;;;;;4176653;28;20714;-65
2022/11/15 06:17:18;;;;;;;50.70;12.93;;;-0.90;99.90;;;;;;4178120;28;20302;-68
2022/11/15 06:19:19;;;;;;;78.80;13.03;;;-0.90;99.90;;;;;;4178336;28;20270;-68
2022/11/15 06:21:20;;;;;;;142.07;15.50;;;-0.90;99.90;;;;;;4177389;28;20352;-65
2022/11/15 06:23:22;;;;;;;141.53;16.57;;;-0.90;99.90;;;;;;4160423;28;20341;-66
2022/11/15 06:25:23;;;;;;;217.43;20.33;;;-0.90;99.90;;;;;;4176545;28;20926;-68
2022/11/15 06:27:24;;;;;;;121.73;16.97;;;-0.90;99.90;;;;;;4177979;28;20258;-65
2022/11/15 06:29:25;;;;;;;169.67;17.40;;;-0.90;99.90;;;;;;4176868;28;20657;-64
2022/11/15 06:31:26;;;;;;;46.07;11.70;;;-0.80;99.90;;;;;;4178615;28;20311;-65
2022/11/15 06:33:27;;;;;;;54.90;12.63;;;-0.80;99.90;;;;;;4176797;28;20262;-68
2022/11/15 06:35:29;;;;;;;44.10;13.43;;;-0.80;99.90;;;;;;4177657;28;20400;-66
2022/11/15 06:37:30;;;;;;;40.37;14.43;;;-0.70;99.90;;;;;;4177523;28;20266;-67
2022/11/15 06:39:32;;;;;;;70.80;15.67;;;-0.60;99.90;;;;;;4160702;28;20343;-65
2022/11/15 06:41:36;;;;;;;63.67;17.93;;;-0.60;99.90;;;;;;4176630;28;20266;-65
2022/11/15 06:43:38;;;;;;;166.27;22.93;;;-0.60;99.90;;;;;;4178095;28;20340;-65
2022/11/15 06:45:39;;;;;;;302.17;26.70;;;-0.60;99.90;;;;;;4177598;28;20316;-64
2022/11/15 06:47:46;;;;;;;157.83;20.23;;;-0.60;99.90;;;;;;4177921;28;20278;-64
2022/11/15 06:49:47;;;;;;;157.37;20.63;;;-0.60;99.90;;;;;;4177683;28;20908;-65
2022/11/15 06:51:48;;;;;;;203.67;21.83;;;-0.70;99.90;;;;;;4177669;28;20269;-66
2022/11/15 06:53:49;;;;;;;223.27;21.40;;;-0.80;99.90;;;;;;4178102;28;20270;-65
2022/11/15 06:55:51;;;;;;;305.40;23.67;;;-0.80;99.90;;;;;;4176934;28;20278;-65
2022/11/15 06:57:52;;;;;;;63.97;14.93;;;-0.80;99.90;;;;;;4178545;28;20292;-66
2022/11/15 06:59:53;;;;;;;62.67;13.80;;;-0.80;99.90;;;;;;4177106;28;20274;-68
2022/11/15 07:01:55;;;;;;;40.97;15.97;;;-0.70;99.90;;;;;;4178121;28;20290;-64
2022/11/15 07:03:56;;;;;;;192.63;22.87;;;-0.60;99.90;;;;;;4158579;28;20299;-65
2022/11/15 07:05:58;;;;;;;165.70;25.13;;;-0.60;99.90;;;;;;4177770;28;20274;-66
2022/11/15 07:08:00;;;;;;;78.97;19.23;;;-0.60;99.90;;;;;;4176928;28;20673;-64
2022/11/15 07:10:01;;;;;;;137.10;23.43;;;-0.60;99.90;;;;;;4178083;28;20348;-65
2022/11/15 07:12:02;;;;;;;290.23;28.80;;;-0.60;99.90;;;;;;4176997;28;20270;-66
2022/11/15 07:14:03;;;;;;;207.97;28.47;;;-0.60;99.90;;;;;;4177058;28;20278;-65
2022/11/15 07:16:07;;;;;;;214.47;27.33;;;-0.70;99.90;;;;;;4177060;28;20258;-65
2022/11/15 07:18:08;;;;;;;217.90;27.87;;;-0.60;99.90;;;;;;4176680;28;20270;-65
2022/11/15 07:20:09;;;;;;;105.73;24.40;;;-0.60;99.90;;;;;;4177368;28;20327;-65
2022/11/15 07:22:11;;;;;;;180.07;26.40;;;-0.60;99.90;;;;;;4177170;28;20725;-65
2022/11/15 07:24:12;;;;;;;152.10;25.33;;;-0.50;99.90;;;;;;4177673;28;20301;-65
2022/11/15 07:26:13;;;;;;;142.90;24.40;;;-0.50;99.90;;;;;;4177156;28;20339;-66
2022/11/15 07:28:14;;;;;;;97.80;24.80;;;-0.50;99.90;;;;;;4177911;28;20669;-65
2022/11/15 07:30:15;;;;;;;96.17;33.53;;;-0.50;99.90;;;;;;4158518;28;20267;-65
2022/11/15 07:32:16;;;;;;;180.53;27.33;;;-0.50;99.90;;;;;;4178148;28;20300;-65
2022/11/15 07:34:17;;;;;;;87.10;23.80;;;-0.50;99.90;;;;;;4158858;28;20888;-64
2022/11/15 07:36:19;;;;;;;66.30;22.77;;;-0.50;99.90;;;;;;4178022;28;20274;-65
2022/11/15 07:38:20;;;;;;;101.50;20.60;;;-0.50;99.90;;;;;;4176347;28;20320;-68
2022/11/15 07:40:21;;;;;;;78.13;19.77;;;-0.50;99.90;;;;;;4177746;28;20764;-65
2022/11/15 07:44:42;;;;;;;59.17;17.70;;;-0.60;99.90;;;;;;4177906;28;20418;-65
2022/11/15 07:46:43;;;;;;;49.13;18.03;;;-0.60;99.90;;;;;;4176843;28;20335;-64
2022/11/15 07:48:44;;;;;;;85.27;19.83;;;-0.60;99.90;;;;;;4177864;28;20262;-64
2022/11/15 07:50:45;;;;;;;163.87;24.07;;;-0.60;99.90;;;;;;4176851;28;20270;-65
2022/11/15 07:52:47;;;;;;;89.47;20.60;;;-0.70;99.90;;;;;;4176462;28;20254;-67
2022/11/15 07:54:48;;;;;;;118.37;19.13;;;-0.70;99.90;;;;;;4176995;28;20261;-68
2022/11/15 07:56:49;;;;;;;48.73;17.27;;;-0.60;99.90;;;;;;4176815;28;20308;-66
2022/11/15 07:58:50;;;;;;;112.10;18.43;;;-0.60;99.90;;;;;;4177492;28;20340;-66
2022/11/15 08:00:51;;;;;;;39.33;16.83;;;-0.60;99.90;;;;;;4176764;28;20363;-64
2022/11/15 08:02:52;;;;;;;63.17;18.87;;;-0.50;99.90;;;;;;4177184;28;20258;-65
2022/11/15 08:04:53;;;;;;;67.73;18.43;;;-0.40;99.90;;;;;;4176414;28;20841;-64
2022/11/15 08:06:55;;;;;;;168.07;23.87;;;-0.40;99.90;;;;;;4176599;28;20266;-69
2022/11/15 08:08:56;;;;;;;64.07;20.27;;;-0.40;99.90;;;;;;4175665;28;20685;-65
2022/11/15 08:10:58;;;;;;;48.47;19.10;;;-0.40;99.90;;;;;;4176236;28;20290;-64
2022/11/15 08:13:01;;;;;;;47.03;18.73;;;-0.20;99.90;;;;;;4175591;28;20281;-65
2022/11/15 08:15:02;;;;;;;52.77;19.03;;;-0.20;99.90;;;;;;4179467;28;20266;-66
2022/11/15 08:17:04;;;;;;;49.07;14.00;;;-0.10;99.90;;;;;;4179739;28;20262;-65
2022/11/15 08:19:06;;;;;;;39.87;12.67;;;0.00;99.90;;;;;;4181222;28;20262;-65
2022/11/15 08:21:17;;;;;;;24.80;10.20;;;-0.10;99.90;;;;;;4178981;28;20742;-66
2022/11/15 08:23:18;;;;;;;36.73;9.83;;;-0.10;99.90;;;;;;4181024;28;20278;-66
2022/11/15 08:25:20;;;;;;;24.43;9.50;;;-0.20;99.90;;;;;;4179312;28;20290;-65
2022/11/15 08:27:21;;;;;;;44.63;11.23;;;-0.30;99.90;;;;;;4180485;28;20266;-66
2022/11/15 08:29:22;;;;;;;22.17;9.90;;;-0.30;99.90;;;;;;4180652;28;20246;-67
2022/11/15 08:31:23;;;;;;;32.77;13.40;;;-0.20;99.90;;;;;;4179966;28;20665;-65
2022/11/15 08:33:24;;;;;;;32.03;15.07;;;-0.20;99.90;;;;;;4179792;28;20722;-66
2022/11/15 08:35:26;;;;;;;49.47;17.80;;;-0.30;99.90;;;;;;4179030;28;20328;-66
2022/11/15 08:37:27;;;;;;;36.30;16.63;;;-0.30;99.90;;;;;;4179936;28;20278;-65
2022/11/15 08:39:28;;;;;;;39.37;17.70;;;-0.30;99.90;;;;;;4178942;28;20274;-65
2022/11/15 08:41:35;;;;;;;38.70;17.10;;;-0.20;99.90;;;;;;4180258;28;20258;-65
2022/11/15 08:43:36;;;;;;;35.17;16.17;;;-0.20;99.90;;;;;;4178327;28;20334;-66
2022/11/15 08:45:37;;;;;;;36.47;18.90;;;-0.10;99.90;;;;;;4179419;28;20774;-65
2022/11/15 08:47:39;;;;;;;44.83;21.03;;;-0.10;99.90;;;;;;4178713;28;20266;-66
2022/11/15 08:49:40;;;;;;;40.00;18.03;;;0.00;99.90;;;;;;4180215;28;20270;-69
2022/11/15 08:51:41;;;;;;;36.80;17.23;;;0.00;99.90;;;;;;4178909;28;20340;-66
2022/11/15 08:53:42;;;;;;;38.37;18.20;;;0.00;99.90;;;;;;4180200;28;20328;-66
2022/11/15 08:55:43;;;;;;;35.80;16.70;;;0.00;99.90;;;;;;4179070;28;20316;-65
2022/11/15 08:57:45;;;;;;;37.50;17.53;;;0.00;99.90;;;;;;4180085;28;20313;-66
2022/11/15 08:59:46;;;;;;;37.67;18.90;;;0.00;99.90;;;;;;4180055;28;20278;-66
2022/11/15 09:01:47;;;;;;;31.37;16.20;;;0.00;99.90;;;;;;4161755;28;20336;-64
2022/11/15 09:03:48;;;;;;;41.60;20.60;;;0.10;99.90;;;;;;4178934;28;20759;-66
2022/11/15 09:05:54;;;;;;;22.63;11.67;;;0.20;99.90;;;;;;4179134;28;20765;-70
2022/11/15 09:07:56;;;;;;;26.47;13.57;;;0.20;99.90;;;;;;4178808;28;20269;-67
2022/11/15 09:09:57;;;;;;;30.37;13.67;;;0.20;99.90;;;;;;4178716;28;20262;-66
2022/11/15 09:11:58;;;;;;;26.50;11.17;;;0.20;99.90;;;;;;4179809;28;20262;-66
2022/11/15 09:13:59;;;;;;;24.37;11.30;;;0.20;99.90;;;;;;4178865;28;20911;-70
2022/11/15 09:16:01;;;;;;;26.70;12.13;;;0.20;99.90;;;;;;4180026;28;20270;-68
2022/11/15 09:18:02;;;;;;;25.77;12.67;;;0.20;99.90;;;;;;4178587;28;20324;-66
2022/11/15 09:20:04;;;;;;;27.83;12.90;;;0.10;99.90;;;;;;4179864;28;20277;-66
2022/11/15 09:22:07;;;;;;;18.50;11.03;;;0.20;99.90;;;;;;4178696;28;20274;-67
2022/11/15 09:24:08;;;;;;;19.37;10.57;;;0.30;99.90;;;;;;4160933;28;20291;-67
2022/11/15 09:26:09;;;;;;;22.70;11.30;;;0.40;99.90;;;;;;4177349;28;20266;-65
2022/11/15 09:28:11;;;;;;;23.73;11.37;;;0.40;99.90;;;;;;4179475;28;20262;-64
2022/11/15 09:30:12;;;;;;;20.63;10.60;;;0.50;99.90;;;;;;4178988;28;20657;-65
2022/11/15 09:32:13;;;;;;;22.53;11.20;;;0.50;99.90;;;;;;4178244;28;20661;-66
2022/11/15 09:34:15;;;;;;;24.70;12.60;;;0.60;99.90;;;;;;4178861;28;20626;-66
2022/11/15 09:36:16;;;;;;;18.47;10.80;;;0.70;99.90;;;;;;4177779;28;20323;-65
2022/11/15 09:38:18;;;;;;;21.20;12.13;;;0.70;99.90;;;;;;4178658;28;20305;-66
2022/11/15 09:40:20;;;;;;;24.30;12.40;;;0.80;99.90;;;;;;4177345;28;20282;-65
2022/11/15 09:42:44;;;;;;;34.90;11.57;;;0.80;99.90;;;;;;4179774;28;20270;-65
2022/11/15 09:44:48;;;;;;;29.97;11.67;;;0.90;99.90;;;;;;4178082;28;20297;-66
2022/11/15 09:47:27;;;;;;;22.73;12.10;;;1.00;99.90;;;;;;4179004;28;20306;-65
2022/11/15 09:49:30;;;;;;;22.37;11.13;;;1.10;99.90;;;;;;4177925;28;20340;-67
2022/11/15 09:51:46;;;;;;;20.43;11.33;;;1.20;99.90;;;;;;4178934;28;20266;-64
2022/11/15 09:53:53;;;;;;;19.97;10.63;;;1.20;99.90;;;;;;4177753;28;20274;-65
2022/11/15 09:56:03;;;;;;;22.83;12.20;;;1.20;99.90;;;;;;4178196;28;20592;-65
2022/11/15 09:58:18;;;;;;;18.30;10.93;;;1.30;99.90;;;;;;4177858;28;20312;-66
2022/11/15 10:00:39;;;;;;;22.00;11.77;;;1.30;99.90;;;;;;4178970;28;20469;-66
2022/11/15 10:03:05;;;;;;;23.70;12.20;;;1.30;99.90;;;;;;4178903;28;20258;-65
2022/11/15 10:05:13;;;;;;;21.67;12.10;;;1.30;99.90;;;;;;4160019;28;20279;-65
2022/11/15 10:07:18;;;;;;;20.33;11.27;;;1.40;99.90;;;;;;4179279;28;20304;-65
2022/11/15 10:09:33;;;;;;;22.27;11.13;;;1.50;99.90;;;;;;4178183;28;20246;-65
2022/11/15 10:11:36;;;;;;;20.47;10.70;;;1.60;99.90;;;;;;4178905;28;20348;-67
2022/11/15 10:13:44;;;;;;;18.43;10.63;;;1.60;99.90;;;;;;4177031;28;20669;-70
2022/11/15 10:15:48;;;;;;;18.57;9.13;;;1.60;99.90;;;;;;4178795;28;20328;-66
2022/11/15 10:18:00;;;;;;;18.63;9.23;;;1.60;99.90;;;;;;4178182;28;20258;-65
2022/11/15 10:20:36;;;;;;;17.97;10.47;;;1.60;99.90;;;;;;4178937;28;20299;-66
2022/11/15 10:23:10;;;;;;;24.07;10.40;;;1.60;99.90;;;;;;4177812;28;20320;-70
2022/11/15 10:25:22;;;;;;;22.20;10.13;;;1.70;99.90;;;;;;4178416;28;20297;-65
2022/11/15 10:27:23;;;;;;;17.60;10.30;;;1.80;99.90;;;;;;4177908;28;20323;-66
2022/11/15 10:29:26;;;;;;;23.47;11.20;;;1.80;99.90;;;;;;4161198;28;20774;-65
2022/11/15 10:31:28;;;;;;;19.17;11.30;;;1.80;99.90;;;;;;4177260;28;20289;-67
2022/11/15 10:33:39;;;;;;;19.30;9.70;;;1.80;99.90;;;;;;4160880;28;20305;-66
2022/11/15 10:35:41;;;;;;;19.58;10.07;;;1.80;99.90;;;;;;4177630;28;20542;-69
2022/11/15 10:37:42;;;;;;;22.13;10.93;;;1.80;99.90;;;;;;4177367;28;20029;-65